sensor_id;sensor_type;location;lat;lon;timestamp;temperature;humidity
12408;DHT22;6268;48.188;17.134;2023-11-21T00:00:07;9.00;99.90
12408;DHT22;6268;48.188;17.134;2023-11-21T00:02:40;9.00;99.90
12408;DHT22;6268;48.188;17.134;2023-11-21T00:05:09;9.00;99.90
12408;DHT22;6268;48.188;17.134;2023-11-21T00:07:37;9.00;99.90
12408;DHT22;6268;48.188;17.134;2023-11-21T00:10:06;8.90;99.90
12408;DHT22;6268;48.188;17.134;2023-11-21T00:12:37;8.90;99.90
12408;DHT22;6268;48.188;17.134;2023-11-21T00:15:10;8.90;99.90
12408;DHT22;6268;48.188;17.134;2023-11-21T00:17:39;8.90;99.90
12408;DHT22;6268;48.188;17.134;2023-11-21T00:20:08;8.90;99.90
12408;DHT22;6268;48.188;17.134;2023-11-21T00:22:40;8.90;99.90
12408;DHT22;6268;48.188;17.134;2023-11-21T00:25:09;8.90;99.90
12408;DHT22;6268;48.188;17.134;2023-11-21T00:27:39;8.90;99.90
12408;DHT22;6268;48.188;17.134;2023-11-21T00:30:08;8.90;99.90
12408;DHT22;6268;48.188;17.134;2023-11-21T00:32:37;8.80;99.90
12408;DHT22;6268;48.188;17.134;2023-11-21T00:35:06;8.80;99.90
12408;DHT22;6268;48.188;17.134;2023-11-21T00:37:34;8.80;99.90
12408;DHT22;6268;48.188;17.134;2023-11-21T00:40:03;8.80;99.90
12408;DHT22;6268;48.188;17.134;2023-11-21T00:42:33;8.80;99.90
12408;DHT22;6268;48.188;17.134;2023-11-21T00:45:03;8.70;99.90
12408;DHT22;6268;48.188;17.134;2023-11-21T00:47:33;8.70;99.90
12408;DHT22;6268;48.188;17.134;2023-11-21T00:50:01;8.70;99.90
12408;DHT22;6268;48.188;17.134;2023-11-21T00:52:30;8.70;99.90
12408;DHT22;6268;48.188;17.134;2023-11-21T00:54:58;8.70;99.90
12408;DHT22;6268;48.188;17.134;2023-11-21T00:57:27;8.70;99.90
12408;DHT22;6268;48.188;17.134;2023-11-21T00:59:55;8.70;99.90
12408;DHT22;6268;48.188;17.134;2023-11-21T01:02:25;8.60;99.90
12408;DHT22;6268;48.188;17.134;2023-11-21T01:04:54;8.60;99.90
12408;DHT22;6268;48.188;17.134;2023-11-21T01:07:22;8.60;99.90
12408;DHT22;6268;48.188;17.134;2023-11-21T01:09:51;8.60;99.90
12408;DHT22;6268;48.188;17.134;2023-11-21T01:12:19;8.50;99.90
12408;DHT22;6268;48.188;17.134;2023-11-21T01:14:48;8.50;99.90
12408;DHT22;6268;48.188;17.134;2023-11-21T01:17:16;8.50;99.90
12408;DHT22;6268;48.188;17.134;2023-11-21T01:19:50;8.40;99.90
12408;DHT22;6268;48.188;17.134;2023-11-21T01:22:19;8.40;99.90
12408;DHT22;6268;48.188;17.134;2023-11-21T01:24:53;8.40;99.90
12408;DHT22;6268;48.188;17.134;2023-11-21T01:27:21;8.30;99.90
12408;DHT22;6268;48.188;17.134;2023-11-21T01:29:50;8.30;99.90
12408;DHT22;6268;48.188;17.134;2023-11-21T01:32:20;8.30;99.90
12408;DHT22;6268;48.188;17.134;2023-11-21T01:34:50;8.30;99.90
12408;DHT22;6268;48.188;17.134;2023-11-21T01:37:19;8.30;99.90
12408;DHT22;6268;48.188;17.134;2023-11-21T01:39:48;8.20;99.90
12408;DHT22;6268;48.188;17.134;2023-11-21T01:42:17;8.20;99.90
12408;DHT22;6268;48.188;17.134;2023-11-21T01:44:45;8.10;99.90
12408;DHT22;6268;48.188;17.134;2023-11-21T01:47:14;8.10;99.90
12408;DHT22;6268;48.188;17.134;2023-11-21T01:49:44;8.10;99.90
12408;DHT22;6268;48.188;17.134;2023-11-21T01:52:14;8.20;99.90
12408;DHT22;6268;48.188;17.134;2023-11-21T01:54:43;8.10;99.90
12408;DHT22;6268;48.188;17.134;2023-11-21T01:57:12;8.20;99.90
12408;DHT22;6268;48.188;17.134;2023-11-21T01:59:41;8.20;99.90
12408;DHT22;6268;48.188;17.134;2023-11-21T02:02:59;8.10;99.90
12408;DHT22;6268;48.188;17.134;2023-11-21T02:05:28;8.10;99.90
12408;DHT22;6268;48.188;17.134;2023-11-21T02:07:58;8.10;99.90
12408;DHT22;6268;48.188;17.134;2023-11-21T02:10:28;8.00;99.90
12408;DHT22;6268;48.188;17.134;2023-11-21T02:12:58;8.00;99.90
12408;DHT22;6268;48.188;17.134;2023-11-21T02:15:30;8.10;99.90
12408;DHT22;6268;48.188;17.134;2023-11-21T02:17:58;8.10;99.90
12408;DHT22;6268;48.188;17.134;2023-11-21T02:20:28;8.10;99.90
12408;DHT22;6268;48.188;17.134;2023-11-21T02:22:58;8.10;99.90
12408;DHT22;6268;48.188;17.134;2023-11-21T02:25:28;8.00;99.90
12408;DHT22;6268;48.188;17.134;2023-11-21T02:27:58;8.00;99.90
12408;DHT22;6268;48.188;17.134;2023-11-21T02:30:28;8.00;99.90
12408;DHT22;6268;48.188;17.134;2023-11-21T02:32:59;8.00;99.90
12408;DHT22;6268;48.188;17.134;2023-11-21T02:35:28;8.00;99.90
12408;DHT22;6268;48.188;17.134;2023-11-21T02:38:00;8.00;99.90
12408;DHT22;6268;48.188;17.134;2023-11-21T02:40:29;7.90;99.90
12408;DHT22;6268;48.188;17.134;2023-11-21T02:42:57;8.00;99.90
12408;DHT22;6268;48.188;17.134;2023-11-21T02:45:26;8.00;99.90
12408;DHT22;6268;48.188;17.134;2023-11-21T02:47:55;8.00;99.90
12408;DHT22;6268;48.188;17.134;2023-11-21T02:50:25;8.00;99.90
12408;DHT22;6268;48.188;17.134;2023-11-21T02:52:54;8.00;99.90
12408;DHT22;6268;48.188;17.134;2023-11-21T02:55:26;8.10;99.90
12408;DHT22;6268;48.188;17.134;2023-11-21T02:57:55;8.10;99.90
12408;DHT22;6268;48.188;17.134;2023-11-21T03:00:24;8.10;99.90
12408;DHT22;6268;48.188;17.134;2023-11-21T03:02:55;8.10;99.90
12408;DHT22;6268;48.188;17.134;2023-11-21T03:05:24;8.20;99.90
12408;DHT22;6268;48.188;17.134;2023-11-21T03:08:16;8.20;99.90
12408;DHT22;6268;48.188;17.134;2023-11-21T03:11:10;8.20;99.90
12408;DHT22;6268;48.188;17.134;2023-11-21T03:14:28;8.30;99.90
12408;DHT22;6268;48.188;17.134;2023-11-21T03:17:45;8.30;99.90
12408;DHT22;6268;48.188;17.134;2023-11-21T03:21:05;8.30;99.90
12408;DHT22;6268;48.188;17.134;2023-11-21T03:24:25;8.30;99.90
12408;DHT22;6268;48.188;17.134;2023-11-21T03:27:44;8.30;99.90
12408;DHT22;6268;48.188;17.134;2023-11-21T03:31:02;8.30;99.90
12408;DHT22;6268;48.188;17.134;2023-11-21T03:34:24;8.30;99.90
12408;DHT22;6268;48.188;17.134;2023-11-21T03:36:53;8.30;99.90
12408;DHT22;6268;48.188;17.134;2023-11-21T03:39:22;8.30;99.90
12408;DHT22;6268;48.188;17.134;2023-11-21T03:41:52;8.40;99.90
12408;DHT22;6268;48.188;17.134;2023-11-21T03:44:22;8.40;99.90
12408;DHT22;6268;48.188;17.134;2023-11-21T03:46:50;8.40;99.90
12408;DHT22;6268;48.188;17.134;2023-11-21T03:49:18;8.50;99.90
12408;DHT22;6268;48.188;17.134;2023-11-21T03:51:47;8.50;99.90
12408;DHT22;6268;48.188;17.134;2023-11-21T03:54:15;8.50;99.90
12408;DHT22;6268;48.188;17.134;2023-11-21T03:56:43;8.50;99.90
12408;DHT22;6268;48.188;17.134;2023-11-21T03:59:12;8.50;99.90
12408;DHT22;6268;48.188;17.134;2023-11-21T04:01:41;8.50;99.90
12408;DHT22;6268;48.188;17.134;2023-11-21T04:04:10;8.50;99.90
12408;DHT22;6268;48.188;17.134;2023-11-21T04:06:39;8.50;99.90
12408;DHT22;6268;48.188;17.134;2023-11-21T04:09:07;8.50;99.90
12408;DHT22;6268;48.188;17.134;2023-11-21T04:11:36;8.50;99.90
12408;DHT22;6268;48.188;17.134;2023-11-21T04:14:04;8.50;99.90
12408;DHT22;6268;48.188;17.134;2023-11-21T04:16:33;8.50;99.90
12408;DHT22;6268;48.188;17.134;2023-11-21T04:19:02;8.50;99.90
12408;DHT22;6268;48.188;17.134;2023-11-21T04:21:31;8.50;99.90
12408;DHT22;6268;48.188;17.134;2023-11-21T04:24:00;8.50;99.90
12408;DHT22;6268;48.188;17.134;2023-11-21T04:26:28;8.50;99.90
12408;DHT22;6268;48.188;17.134;2023-11-21T04:28:56;8.50;99.90
12408;DHT22;6268;48.188;17.134;2023-11-21T04:31:25;8.50;99.90
12408;DHT22;6268;48.188;17.134;2023-11-21T04:33:53;8.50;99.90
12408;DHT22;6268;48.188;17.134;2023-11-21T04:36:23;8.40;99.90
12408;DHT22;6268;48.188;17.134;2023-11-21T04:38:51;8.40;99.90
12408;DHT22;6268;48.188;17.134;2023-11-21T04:41:20;8.40;99.90
12408;DHT22;6268;48.188;17.134;2023-11-21T04:43:47;8.50;99.90
12408;DHT22;6268;48.188;17.134;2023-11-21T04:46:16;8.40;99.90
12408;DHT22;6268;48.188;17.134;2023-11-21T04:48:44;8.40;99.90
12408;DHT22;6268;48.188;17.134;2023-11-21T04:51:14;8.40;99.90
12408;DHT22;6268;48.188;17.134;2023-11-21T04:53:43;8.40;99.90
12408;DHT22;6268;48.188;17.134;2023-11-21T04:56:12;8.30;99.90
12408;DHT22;6268;48.188;17.134;2023-11-21T04:58:40;8.30;99.90
12408;DHT22;6268;48.188;17.134;2023-11-21T05:01:09;8.30;99.90
12408;DHT22;6268;48.188;17.134;2023-11-21T05:03:37;8.30;99.90
12408;DHT22;6268;48.188;17.134;2023-11-21T05:06:09;8.30;99.90
12408;DHT22;6268;48.188;17.134;2023-11-21T05:08:37;8.30;99.90
12408;DHT22;6268;48.188;17.134;2023-11-21T05:11:07;8.30;99.90
12408;DHT22;6268;48.188;17.134;2023-11-21T05:13:37;8.20;99.90
12408;DHT22;6268;48.188;17.134;2023-11-21T05:16:07;8.10;99.90
12408;DHT22;6268;48.188;17.134;2023-11-21T05:18:35;8.10;99.90
12408;DHT22;6268;48.188;17.134;2023-11-21T05:21:04;8.10;99.90
12408;DHT22;6268;48.188;17.134;2023-11-21T05:23:33;8.00;99.90
12408;DHT22;6268;48.188;17.134;2023-11-21T05:26:01;8.00;99.90
12408;DHT22;6268;48.188;17.134;2023-11-21T05:28:31;8.00;99.90
12408;DHT22;6268;48.188;17.134;2023-11-21T05:31:00;7.90;99.90
12408;DHT22;6268;48.188;17.134;2023-11-21T05:33:42;7.90;99.90
12408;DHT22;6268;48.188;17.134;2023-11-21T05:36:10;7.90;99.90
12408;DHT22;6268;48.188;17.134;2023-11-21T05:38:39;7.90;99.90
12408;DHT22;6268;48.188;17.134;2023-11-21T05:41:08;7.80;99.90
12408;DHT22;6268;48.188;17.134;2023-11-21T05:43:41;7.80;99.90
12408;DHT22;6268;48.188;17.134;2023-11-21T05:46:10;7.70;99.90
12408;DHT22;6268;48.188;17.134;2023-11-21T05:48:38;7.60;99.90
12408;DHT22;6268;48.188;17.134;2023-11-21T05:51:07;7.50;99.90
12408;DHT22;6268;48.188;17.134;2023-11-21T05:53:35;7.50;99.90
12408;DHT22;6268;48.188;17.134;2023-11-21T05:56:04;7.40;99.90
12408;DHT22;6268;48.188;17.134;2023-11-21T05:58:33;7.40;99.90
12408;DHT22;6268;48.188;17.134;2023-11-21T06:01:05;7.30;99.90
12408;DHT22;6268;48.188;17.134;2023-11-21T06:03:37;7.40;99.90
12408;DHT22;6268;48.188;17.134;2023-11-21T06:06:06;7.40;99.90
12408;DHT22;6268;48.188;17.134;2023-11-21T06:08:34;7.30;99.90
12408;DHT22;6268;48.188;17.134;2023-11-21T06:11:03;7.30;99.90
12408;DHT22;6268;48.188;17.134;2023-11-21T06:13:31;7.20;99.90
12408;DHT22;6268;48.188;17.134;2023-11-21T06:16:00;7.20;99.90
12408;DHT22;6268;48.188;17.134;2023-11-21T06:18:29;7.20;99.90
12408;DHT22;6268;48.188;17.134;2023-11-21T06:20:58;7.20;99.90
12408;DHT22;6268;48.188;17.134;2023-11-21T06:23:27;7.20;99.90
12408;DHT22;6268;48.188;17.134;2023-11-21T06:25:55;7.20;99.90
12408;DHT22;6268;48.188;17.134;2023-11-21T06:28:24;7.20;99.90
12408;DHT22;6268;48.188;17.134;2023-11-21T06:30:52;7.20;99.90
12408;DHT22;6268;48.188;17.134;2023-11-21T06:33:21;7.20;99.90
12408;DHT22;6268;48.188;17.134;2023-11-21T06:35:51;7.20;99.90
12408;DHT22;6268;48.188;17.134;2023-11-21T06:38:19;7.20;99.90
12408;DHT22;6268;48.188;17.134;2023-11-21T06:40:47;7.20;99.90
12408;DHT22;6268;48.188;17.134;2023-11-21T06:43:16;7.20;99.90
12408;DHT22;6268;48.188;17.134;2023-11-21T06:45:44;7.30;99.90
12408;DHT22;6268;48.188;17.134;2023-11-21T06:48:12;7.30;99.90
12408;DHT22;6268;48.188;17.134;2023-11-21T06:50:42;7.40;99.90
12408;DHT22;6268;48.188;17.134;2023-11-21T06:53:11;7.40;99.90
12408;DHT22;6268;48.188;17.134;2023-11-21T06:55:40;7.40;99.90
12408;DHT22;6268;48.188;17.134;2023-11-21T06:58:09;7.40;99.90
12408;DHT22;6268;48.188;17.134;2023-11-21T07:00:37;7.50;99.90
12408;DHT22;6268;48.188;17.134;2023-11-21T07:03:05;7.50;99.90
12408;DHT22;6268;48.188;17.134;2023-11-21T07:05:34;7.50;99.90
12408;DHT22;6268;48.188;17.134;2023-11-21T07:08:03;7.60;99.90
12408;DHT22;6268;48.188;17.134;2023-11-21T07:10:33;7.70;99.90
12408;DHT22;6268;48.188;17.134;2023-11-21T07:13:02;7.70;99.90
12408;DHT22;6268;48.188;17.134;2023-11-21T07:15:30;7.80;99.90
12408;DHT22;6268;48.188;17.134;2023-11-21T07:17:58;7.80;99.90
12408;DHT22;6268;48.188;17.134;2023-11-21T07:20:27;7.90;99.90
12408;DHT22;6268;48.188;17.134;2023-11-21T07:22:57;7.90;99.90
12408;DHT22;6268;48.188;17.134;2023-11-21T07:25:26;8.00;99.90
12408;DHT22;6268;48.188;17.134;2023-11-21T07:27:56;8.00;99.90
12408;DHT22;6268;48.188;17.134;2023-11-21T07:30:24;8.10;99.90
12408;DHT22;6268;48.188;17.134;2023-11-21T07:32:52;8.10;99.90
12408;DHT22;6268;48.188;17.134;2023-11-21T07:35:21;8.20;99.90
12408;DHT22;6268;48.188;17.134;2023-11-21T07:37:49;8.30;99.90
12408;DHT22;6268;48.188;17.134;2023-11-21T07:40:18;8.30;99.90
12408;DHT22;6268;48.188;17.134;2023-11-21T07:42:46;8.40;99.90
12408;DHT22;6268;48.188;17.134;2023-11-21T07:45:17;8.40;99.90
12408;DHT22;6268;48.188;17.134;2023-11-21T07:47:45;8.50;99.90
12408;DHT22;6268;48.188;17.134;2023-11-21T07:50:14;8.50;99.90
12408;DHT22;6268;48.188;17.134;2023-11-21T07:52:42;8.60;99.90
12408;DHT22;6268;48.188;17.134;2023-11-21T07:55:11;8.60;99.90
12408;DHT22;6268;48.188;17.134;2023-11-21T07:57:40;8.60;99.90
12408;DHT22;6268;48.188;17.134;2023-11-21T08:00:10;8.70;99.90
12408;DHT22;6268;48.188;17.134;2023-11-21T08:02:41;8.70;99.90
12408;DHT22;6268;48.188;17.134;2023-11-21T08:05:13;8.70;99.90
12408;DHT22;6268;48.188;17.134;2023-11-21T08:07:54;8.60;99.90
12408;DHT22;6268;48.188;17.134;2023-11-21T08:10:23;8.60;99.90
12408;DHT22;6268;48.188;17.134;2023-11-21T08:12:52;8.60;99.90
12408;DHT22;6268;48.188;17.134;2023-11-21T08:15:20;8.60;99.90
12408;DHT22;6268;48.188;17.134;2023-11-21T08:17:50;8.60;99.90
12408;DHT22;6268;48.188;17.134;2023-11-21T08:20:19;8.60;99.90
12408;DHT22;6268;48.188;17.134;2023-11-21T08:22:50;8.60;99.90
12408;DHT22;6268;48.188;17.134;2023-11-21T08:25:19;8.70;99.90
12408;DHT22;6268;48.188;17.134;2023-11-21T08:27:50;8.70;99.90
12408;DHT22;6268;48.188;17.134;2023-11-21T08:30:18;8.70;99.90
12408;DHT22;6268;48.188;17.134;2023-11-21T08:32:50;8.80;99.90
12408;DHT22;6268;48.188;17.134;2023-11-21T08:35:21;8.90;99.90
12408;DHT22;6268;48.188;17.134;2023-11-21T08:37:51;9.10;99.90
12408;DHT22;6268;48.188;17.134;2023-11-21T08:40:20;9.20;99.90
12408;DHT22;6268;48.188;17.134;2023-11-21T08:42:48;9.20;99.90
12408;DHT22;6268;48.188;17.134;2023-11-21T08:45:18;9.20;99.90
12408;DHT22;6268;48.188;17.134;2023-11-21T08:47:47;9.30;99.90
12408;DHT22;6268;48.188;17.134;2023-11-21T08:50:17;9.40;99.90
12408;DHT22;6268;48.188;17.134;2023-11-21T08:52:46;9.40;99.90
12408;DHT22;6268;48.188;17.134;2023-11-21T08:55:15;9.60;99.90
12408;DHT22;6268;48.188;17.134;2023-11-21T08:57:44;9.70;99.90
12408;DHT22;6268;48.188;17.134;2023-11-21T09:00:14;9.70;99.90
12408;DHT22;6268;48.188;17.134;2023-11-21T09:02:44;9.70;99.90
12408;DHT22;6268;48.188;17.134;2023-11-21T09:05:14;9.70;99.90
12408;DHT22;6268;48.188;17.134;2023-11-21T09:07:44;9.70;99.90
12408;DHT22;6268;48.188;17.134;2023-11-21T09:10:15;9.80;99.90
12408;DHT22;6268;48.188;17.134;2023-11-21T09:12:44;9.90;99.90
12408;DHT22;6268;48.188;17.134;2023-11-21T09:15:12;9.90;99.90
12408;DHT22;6268;48.188;17.134;2023-11-21T09:17:42;10.00;99.90
12408;DHT22;6268;48.188;17.134;2023-11-21T09:20:12;10.00;99.90
12408;DHT22;6268;48.188;17.134;2023-11-21T09:22:43;10.10;99.90
12408;DHT22;6268;48.188;17.134;2023-11-21T09:25:13;10.20;99.90
12408;DHT22;6268;48.188;17.134;2023-11-21T09:27:42;10.20;99.90
12408;DHT22;6268;48.188;17.134;2023-11-21T09:30:11;10.20;99.90
12408;DHT22;6268;48.188;17.134;2023-11-21T09:32:41;10.20;99.90
12408;DHT22;6268;48.188;17.134;2023-11-21T09:35:13;10.20;99.90
12408;DHT22;6268;48.188;17.134;2023-11-21T09:37:44;10.20;99.90
12408;DHT22;6268;48.188;17.134;2023-11-21T09:40:20;10.30;99.90
12408;DHT22;6268;48.188;17.134;2023-11-21T09:42:54;10.50;99.90
12408;DHT22;6268;48.188;17.134;2023-11-21T09:45:26;10.60;99.90
12408;DHT22;6268;48.188;17.134;2023-11-21T09:47:55;10.80;99.90
12408;DHT22;6268;48.188;17.134;2023-11-21T09:50:25;10.90;99.90
12408;DHT22;6268;48.188;17.134;2023-11-21T09:53:11;11.10;99.90
12408;DHT22;6268;48.188;17.134;2023-11-21T09:55:43;11.30;99.90
12408;DHT22;6268;48.188;17.134;2023-11-21T09:58:13;11.40;99.90
12408;DHT22;6268;48.188;17.134;2023-11-21T10:00:43;11.60;99.90
12408;DHT22;6268;48.188;17.134;2023-11-21T10:03:12;11.70;99.90
12408;DHT22;6268;48.188;17.134;2023-11-21T10:05:42;11.60;99.90
12408;DHT22;6268;48.188;17.134;2023-11-21T10:08:14;11.60;99.90
12408;DHT22;6268;48.188;17.134;2023-11-21T10:10:45;11.70;99.90
12408;DHT22;6268;48.188;17.134;2023-11-21T10:13:15;11.80;99.90
12408;DHT22;6268;48.188;17.134;2023-11-21T10:15:50;11.80;99.90
12408;DHT22;6268;48.188;17.134;2023-11-21T10:18:19;11.90;99.90
12408;DHT22;6268;48.188;17.134;2023-11-21T10:20:49;12.20;99.90
12408;DHT22;6268;48.188;17.134;2023-11-21T10:23:22;12.50;99.90
12408;DHT22;6268;48.188;17.134;2023-11-21T10:25:51;12.80;99.90
12408;DHT22;6268;48.188;17.134;2023-11-21T10:28:21;13.20;99.90
12408;DHT22;6268;48.188;17.134;2023-11-21T10:30:49;13.70;99.90
12408;DHT22;6268;48.188;17.134;2023-11-21T10:33:21;14.20;99.90
12408;DHT22;6268;48.188;17.134;2023-11-21T10:35:55;14.60;99.90
12408;DHT22;6268;48.188;17.134;2023-11-21T10:38:24;14.90;99.90
12408;DHT22;6268;48.188;17.134;2023-11-21T10:40:54;15.20;99.90
12408;DHT22;6268;48.188;17.134;2023-11-21T10:43:25;15.40;99.90
12408;DHT22;6268;48.188;17.134;2023-11-21T10:45:57;15.70;99.90
12408;DHT22;6268;48.188;17.134;2023-11-21T10:48:27;15.90;99.90
12408;DHT22;6268;48.188;17.134;2023-11-21T10:50:55;16.00;99.90
12408;DHT22;6268;48.188;17.134;2023-11-21T10:53:28;16.20;99.90
12408;DHT22;6268;48.188;17.134;2023-11-21T10:56:02;16.40;99.90
12408;DHT22;6268;48.188;17.134;2023-11-21T10:58:33;16.60;99.90
12408;DHT22;6268;48.188;17.134;2023-11-21T11:01:05;16.60;99.90
12408;DHT22;6268;48.188;17.134;2023-11-21T11:03:36;16.70;99.90
12408;DHT22;6268;48.188;17.134;2023-11-21T11:06:06;16.70;99.90
12408;DHT22;6268;48.188;17.134;2023-11-21T11:08:40;16.70;99.90
12408;DHT22;6268;48.188;17.134;2023-11-21T11:11:09;16.80;99.90
12408;DHT22;6268;48.188;17.134;2023-11-21T11:13:41;17.00;99.90
12408;DHT22;6268;48.188;17.134;2023-11-21T11:16:12;16.90;99.90
12408;DHT22;6268;48.188;17.134;2023-11-21T11:18:44;16.50;99.90
12408;DHT22;6268;48.188;17.134;2023-11-21T11:21:24;15.90;99.90
12408;DHT22;6268;48.188;17.134;2023-11-21T11:24:13;15.50;99.90
12408;DHT22;6268;48.188;17.134;2023-11-21T11:26:47;15.00;99.90
12408;DHT22;6268;48.188;17.134;2023-11-21T11:29:27;14.80;99.90
12408;DHT22;6268;48.188;17.134;2023-11-21T11:32:08;14.50;99.90
12408;DHT22;6268;48.188;17.134;2023-11-21T11:34:43;14.40;99.90
12408;DHT22;6268;48.188;17.134;2023-11-21T11:37:13;14.40;99.90
12408;DHT22;6268;48.188;17.134;2023-11-21T11:39:44;14.50;99.90
12408;DHT22;6268;48.188;17.134;2023-11-21T11:42:13;14.60;99.90
12408;DHT22;6268;48.188;17.134;2023-11-21T11:44:50;14.80;99.90
12408;DHT22;6268;48.188;17.134;2023-11-21T11:47:25;14.80;99.90
12408;DHT22;6268;48.188;17.134;2023-11-21T11:50:01;14.90;99.90
12408;DHT22;6268;48.188;17.134;2023-11-21T11:52:36;15.00;99.90
12408;DHT22;6268;48.188;17.134;2023-11-21T11:55:09;15.10;99.90
12408;DHT22;6268;48.188;17.134;2023-11-21T11:57:42;15.10;99.90
12408;DHT22;6268;48.188;17.134;2023-11-21T12:00:15;15.20;99.90
12408;DHT22;6268;48.188;17.134;2023-11-21T12:02:49;15.20;99.90
12408;DHT22;6268;48.188;17.134;2023-11-21T12:05:19;14.90;99.90
12408;DHT22;6268;48.188;17.134;2023-11-21T12:07:49;14.90;99.90
12408;DHT22;6268;48.188;17.134;2023-11-21T12:10:23;14.70;99.90
12408;DHT22;6268;48.188;17.134;2023-11-21T12:12:53;14.60;99.90
12408;DHT22;6268;48.188;17.134;2023-11-21T12:15:22;14.60;99.90
12408;DHT22;6268;48.188;17.134;2023-11-21T12:17:52;14.50;99.90
12408;DHT22;6268;48.188;17.134;2023-11-21T12:20:22;14.50;99.90
12408;DHT22;6268;48.188;17.134;2023-11-21T12:22:52;14.50;99.90
12408;DHT22;6268;48.188;17.134;2023-11-21T12:25:23;14.60;99.90
12408;DHT22;6268;48.188;17.134;2023-11-21T12:27:56;14.60;99.90
12408;DHT22;6268;48.188;17.134;2023-11-21T12:30:26;14.60;99.90
12408;DHT22;6268;48.188;17.134;2023-11-21T12:32:59;14.60;99.90
12408;DHT22;6268;48.188;17.134;2023-11-21T12:35:30;14.50;99.90
12408;DHT22;6268;48.188;17.134;2023-11-21T12:38:02;14.20;99.90
12408;DHT22;6268;48.188;17.134;2023-11-21T12:40:32;14.00;99.90
12408;DHT22;6268;48.188;17.134;2023-11-21T12:43:01;13.70;99.90
12408;DHT22;6268;48.188;17.134;2023-11-21T12:45:32;13.60;99.90
12408;DHT22;6268;48.188;17.134;2023-11-21T12:48:02;13.30;99.90
12408;DHT22;6268;48.188;17.134;2023-11-21T12:50:35;13.00;99.90
12408;DHT22;6268;48.188;17.134;2023-11-21T12:53:05;12.90;99.90
12408;DHT22;6268;48.188;17.134;2023-11-21T12:55:37;12.80;99.90
12408;DHT22;6268;48.188;17.134;2023-11-21T12:58:07;12.90;99.90
12408;DHT22;6268;48.188;17.134;2023-11-21T13:00:39;12.80;99.90
12408;DHT22;6268;48.188;17.134;2023-11-21T13:03:10;12.90;99.90
12408;DHT22;6268;48.188;17.134;2023-11-21T13:05:45;12.80;99.90
12408;DHT22;6268;48.188;17.134;2023-11-21T13:08:15;12.70;99.90
12408;DHT22;6268;48.188;17.134;2023-11-21T13:10:50;12.60;99.90
12408;DHT22;6268;48.188;17.134;2023-11-21T13:13:19;12.60;99.90
12408;DHT22;6268;48.188;17.134;2023-11-21T13:15:52;12.60;99.90
12408;DHT22;6268;48.188;17.134;2023-11-21T13:18:23;12.50;99.90
12408;DHT22;6268;48.188;17.134;2023-11-21T13:20:53;12.50;99.90
12408;DHT22;6268;48.188;17.134;2023-11-21T13:23:21;12.50;99.90
12408;DHT22;6268;48.188;17.134;2023-11-21T13:25:52;12.50;99.90
12408;DHT22;6268;48.188;17.134;2023-11-21T13:28:30;12.30;99.90
12408;DHT22;6268;48.188;17.134;2023-11-21T13:31:01;12.20;99.90
12408;DHT22;6268;48.188;17.134;2023-11-21T13:33:37;12.20;99.90
12408;DHT22;6268;48.188;17.134;2023-11-21T13:36:08;12.30;99.90
12408;DHT22;6268;48.188;17.134;2023-11-21T13:38:38;12.30;99.90
12408;DHT22;6268;48.188;17.134;2023-11-21T13:41:12;12.30;99.90
12408;DHT22;6268;48.188;17.134;2023-11-21T13:43:41;12.20;99.90
12408;DHT22;6268;48.188;17.134;2023-11-21T13:46:15;12.30;99.90
12408;DHT22;6268;48.188;17.134;2023-11-21T13:48:49;12.30;99.90
12408;DHT22;6268;48.188;17.134;2023-11-21T13:51:24;12.10;99.90
12408;DHT22;6268;48.188;17.134;2023-11-21T13:54:03;12.00;99.90
12408;DHT22;6268;48.188;17.134;2023-11-21T13:56:38;12.00;99.90
12408;DHT22;6268;48.188;17.134;2023-11-21T13:59:08;12.10;99.90
12408;DHT22;6268;48.188;17.134;2023-11-21T14:01:48;12.10;99.90
12408;DHT22;6268;48.188;17.134;2023-11-21T14:04:25;12.00;99.90
12408;DHT22;6268;48.188;17.134;2023-11-21T14:07:14;12.00;99.90
12408;DHT22;6268;48.188;17.134;2023-11-21T14:09:53;11.90;99.90
12408;DHT22;6268;48.188;17.134;2023-11-21T14:12:23;11.80;99.90
12408;DHT22;6268;48.188;17.134;2023-11-21T14:14:51;11.70;99.90
12408;DHT22;6268;48.188;17.134;2023-11-21T14:17:22;11.70;99.90
12408;DHT22;6268;48.188;17.134;2023-11-21T14:19:51;11.60;99.90
12408;DHT22;6268;48.188;17.134;2023-11-21T14:22:22;11.50;99.90
12408;DHT22;6268;48.188;17.134;2023-11-21T14:24:53;11.50;99.90
12408;DHT22;6268;48.188;17.134;2023-11-21T14:27:24;11.50;99.90
12408;DHT22;6268;48.188;17.134;2023-11-21T14:29:52;11.50;99.90
12408;DHT22;6268;48.188;17.134;2023-11-21T14:32:21;11.50;99.90
12408;DHT22;6268;48.188;17.134;2023-11-21T14:34:49;11.60;99.90
12408;DHT22;6268;48.188;17.134;2023-11-21T14:37:18;11.60;99.90
12408;DHT22;6268;48.188;17.134;2023-11-21T14:39:47;11.60;99.90
12408;DHT22;6268;48.188;17.134;2023-11-21T14:42:17;11.60;99.90
12408;DHT22;6268;48.188;17.134;2023-11-21T14:44:53;11.50;99.90
12408;DHT22;6268;48.188;17.134;2023-11-21T14:47:27;11.50;99.90
12408;DHT22;6268;48.188;17.134;2023-11-21T14:49:55;11.40;99.90
12408;DHT22;6268;48.188;17.134;2023-11-21T14:52:27;11.40;99.90
12408;DHT22;6268;48.188;17.134;2023-11-21T14:55:02;11.30;99.90
12408;DHT22;6268;48.188;17.134;2023-11-21T14:57:47;11.30;99.90
12408;DHT22;6268;48.188;17.134;2023-11-21T15:00:20;11.30;99.90
12408;DHT22;6268;48.188;17.134;2023-11-21T15:03:11;11.20;99.90
12408;DHT22;6268;48.188;17.134;2023-11-21T15:05:57;11.10;99.90
12408;DHT22;6268;48.188;17.134;2023-11-21T15:08:26;11.00;99.90
12408;DHT22;6268;48.188;17.134;2023-11-21T15:10:58;10.90;99.90
12408;DHT22;6268;48.188;17.134;2023-11-21T15:13:26;10.90;99.90
12408;DHT22;6268;48.188;17.134;2023-11-21T15:15:56;10.80;99.90
12408;DHT22;6268;48.188;17.134;2023-11-21T15:18:34;10.80;99.90
12408;DHT22;6268;48.188;17.134;2023-11-21T15:21:05;10.70;99.90
12408;DHT22;6268;48.188;17.134;2023-11-21T15:23:38;10.60;99.90
12408;DHT22;6268;48.188;17.134;2023-11-21T15:26:08;10.50;99.90
12408;DHT22;6268;48.188;17.134;2023-11-21T15:28:37;10.50;99.90
12408;DHT22;6268;48.188;17.134;2023-11-21T15:31:07;10.40;99.90
12408;DHT22;6268;48.188;17.134;2023-11-21T15:33:36;10.40;99.90
12408;DHT22;6268;48.188;17.134;2023-11-21T15:36:04;10.50;99.90
12408;DHT22;6268;48.188;17.134;2023-11-21T15:38:36;10.40;99.90
12408;DHT22;6268;48.188;17.134;2023-11-21T15:41:06;10.30;99.90
12408;DHT22;6268;48.188;17.134;2023-11-21T15:43:38;10.10;99.90
12408;DHT22;6268;48.188;17.134;2023-11-21T15:46:07;10.10;99.90
12408;DHT22;6268;48.188;17.134;2023-11-21T15:48:36;10.00;99.90
12408;DHT22;6268;48.188;17.134;2023-11-21T15:51:10;9.90;99.90
12408;DHT22;6268;48.188;17.134;2023-11-21T15:53:39;9.80;99.90
12408;DHT22;6268;48.188;17.134;2023-11-21T15:56:08;9.70;99.90
12408;DHT22;6268;48.188;17.134;2023-11-21T15:58:39;9.70;99.90
12408;DHT22;6268;48.188;17.134;2023-11-21T16:01:11;9.70;99.90
12408;DHT22;6268;48.188;17.134;2023-11-21T16:03:40;9.70;99.90
12408;DHT22;6268;48.188;17.134;2023-11-21T16:06:13;9.70;99.90